Time;durP1;ratioP1;P1;durP2;ratioP2;P2;SDS_P1;SDS_P2;PMS_P1;PMS_P2;Temp;Humidity;BMP_temperature;BMP_pressure;BME280_temperature;BME280_humidity;BME280_pressure;Samples;Min_cycle;Max_cycle;Signal;HPM_P1;HPM_P2
2023/12/21 00:00:35;;;;;;;;;;;;;;;6.93;66.49;97533.25;5007001;28;19929;-67
2023/12/21 00:03:24;;;;;;;;;;;;;;;6.99;66.75;97527.47;5007820;28;19925;-67
2023/12/21 00:06:12;;;;;;;;;;;;;;;7.14;65.81;97525.56;5008396;28;20375;-65
2023/12/21 00:09:00;;;;;;;;;;;;;;;7.08;65.26;97522.16;5005934;28;19936;-65
2023/12/21 00:11:48;;;;;;;;;;;;;;;7.00;65.88;97522.84;5007298;28;20430;-68
2023/12/21 00:14:36;;;;;;;;;;;;;;;7.06;65.72;97511.66;5003657;28;19926;-67
2023/12/21 00:17:24;;;;;;;;;;;;;;;7.12;66.24;97498.84;5000628;28;20418;-67
2023/12/21 00:20:14;;;;;;;;;;;;;;;7.03;65.85;97508.75;5002976;28;19929;-67
2023/12/21 00:23:02;;;;;;;;;;;;;;;7.18;66.13;97500.34;5018844;28;19935;-67
2023/12/21 00:25:50;;;;;;;;;;;;;;;7.05;66.52;97493.06;5014197;28;19941;-67
2023/12/21 00:28:38;;;;;;;;;;;;;;;7.11;66.20;97485.66;5012114;28;19976;-68
2023/12/21 00:31:26;;;;;;;;;;;;;;;7.17;66.84;97487.94;5007304;28;20337;-68
2023/12/21 00:34:14;;;;;;;;;;;;;;;7.08;66.79;97489.75;5006378;28;19948;-67
2023/12/21 00:37:04;;;;;;;;;;;;;;;7.00;67.17;97480.44;5001605;28;19929;-67
2023/12/21 00:39:52;;;;;;;;;;;;;;;6.98;66.82;97479.16;5010590;28;20303;-67
2023/12/21 00:42:41;;;;;;;;;;;;;;;6.95;67.54;97455.44;5010434;28;19975;-67
2023/12/21 00:45:30;;;;;;;;;;;;;;;6.94;67.54;97465.44;5013260;28;19965;-67
2023/12/21 00:48:19;;;;;;;;;;;;;;;6.99;67.87;97464.53;5004055;28;20048;-66
2023/12/21 00:51:07;;;;;;;;;;;;;;;7.04;67.57;97462.53;5010608;28;20020;-67
2023/12/21 00:53:57;;;;;;;;;;;;;;;6.99;67.79;97459.94;5006150;28;19979;-66
2023/12/21 00:56:45;;;;;;;;;;;;;;;6.97;67.92;97464.81;5013171;28;19929;-67
2023/12/21 00:59:33;;;;;;;;;;;;;;;7.00;68.40;97464.22;5011529;28;19925;-65
2023/12/21 01:02:21;;;;;;;;;;;;;;;6.99;68.40;97461.84;5010641;28;19980;-68
2023/12/21 01:05:09;;;;;;;;;;;;;;;6.96;68.30;97449.72;4997441;28;19930;-68
2023/12/21 01:08:01;;;;;;;;;;;;;;;6.87;68.54;97440.72;5003652;28;19934;-67
2023/12/21 01:10:50;;;;;;;;;;;;;;;6.96;68.48;97430.81;5012722;28;20058;-66
2023/12/21 01:13:38;;;;;;;;;;;;;;;7.01;68.50;97421.81;5008012;28;19957;-66
2023/12/21 01:16:26;;;;;;;;;;;;;;;7.04;67.95;97415.84;5006102;28;20383;-65
2023/12/21 01:19:14;;;;;;;;;;;;;;;6.92;68.09;97402.00;5005465;28;19933;-66
2023/12/21 01:22:02;;;;;;;;;;;;;;;6.99;68.49;97402.44;5009331;28;20031;-67
2023/12/21 01:24:50;;;;;;;;;;;;;;;6.91;68.25;97390.41;5004281;28;19929;-67
2023/12/21 01:27:40;;;;;;;;;;;;;;;6.74;68.62;97395.59;5010447;28;19936;-65
2023/12/21 01:30:28;;;;;;;;;;;;;;;6.80;68.89;97389.81;5005059;28;19964;-66
2023/12/21 01:33:16;;;;;;;;;;;;;;;6.75;69.31;97389.09;5005663;28;19935;-66
2023/12/21 01:36:07;;;;;;;;;;;;;;;6.70;69.48;97384.59;5009023;28;19932;-66
2023/12/21 01:38:56;;;;;;;;;;;;;;;6.68;69.55;97386.81;5010584;28;19929;-65
2023/12/21 01:41:44;;;;;;;;;;;;;;;6.74;69.60;97384.81;5010288;28;19947;-66
2023/12/21 01:44:34;;;;;;;;;;;;;;;6.77;69.27;97371.53;5004995;28;19937;-66
2023/12/21 01:47:22;;;;;;;;;;;;;;;6.70;69.66;97373.78;5007788;28;20013;-65
2023/12/21 01:50:10;;;;;;;;;;;;;;;6.67;69.82;97370.91;5005931;28;19937;-64
2023/12/21 01:52:58;;;;;;;;;;;;;;;6.80;69.55;97356.59;5005796;28;19925;-67
2023/12/21 01:55:46;;;;;;;;;;;;;;;6.79;69.22;97345.00;5007384;28;19929;-67
2023/12/21 01:58:34;;;;;;;;;;;;;;;6.77;69.48;97351.81;5008285;28;19926;-67
2023/12/21 02:01:24;;;;;;;;;;;;;;;6.73;69.14;97340.81;5010482;28;19934;-67
2023/12/21 02:04:12;;;;;;;;;;;;;;;6.79;69.48;97338.81;5006135;28;19936;-67
2023/12/21 02:07:00;;;;;;;;;;;;;;;6.65;69.19;97341.50;5015988;28;19933;-67
2023/12/21 02:09:48;;;;;;;;;;;;;;;6.69;69.08;97341.72;5004472;28;20303;-66
2023/12/21 02:12:36;;;;;;;;;;;;;;;6.72;69.63;97339.22;5003125;28;19929;-66
2023/12/21 02:15:24;;;;;;;;;;;;;;;6.79;70.15;97347.72;5000685;28;19925;-67
2023/12/21 02:18:13;;;;;;;;;;;;;;;6.69;69.08;97342.50;5007640;28;19933;-66
2023/12/21 02:21:02;;;;;;;;;;;;;;;6.86;68.90;97336.50;5011155;28;20022;-67
2023/12/21 02:23:50;;;;;;;;;;;;;;;6.81;68.52;97336.59;5001405;28;20394;-64
2023/12/21 02:26:39;;;;;;;;;;;;;;;6.87;68.57;97331.91;5009268;28;19936;-67
2023/12/21 02:29:29;;;;;;;;;;;;;;;6.81;69.00;97333.91;5009435;28;20371;-66
2023/12/21 02:32:17;;;;;;;;;;;;;;;6.78;69.02;97326.41;5008139;28;19925;-65
2023/12/21 02:35:05;;;;;;;;;;;;;;;6.79;68.67;97323.41;5009724;28;20306;-67
2023/12/21 02:37:55;;;;;;;;;;;;;;;6.88;68.99;97328.13;5009655;28;19929;-66
2023/12/21 02:40:43;;;;;;;;;;;;;;;6.94;68.45;97324.22;5009412;28;20035;-66
2023/12/21 02:43:33;;;;;;;;;;;;;;;6.93;69.48;97307.22;5004492;28;20410;-67
2023/12/21 02:46:21;;;;;;;;;;;;;;;6.90;68.24;97297.00;5005632;28;19926;-66
2023/12/21 02:49:09;;;;;;;;;;;;;;;6.80;69.91;97287.22;5008341;28;20005;-69
2023/12/21 02:51:57;;;;;;;;;;;;;;;6.91;69.38;97276.19;5005579;28;20099;-66
2023/12/21 02:54:44;;;;;;;;;;;;;;;6.98;68.69;97260.41;5010603;28;19941;-67
2023/12/21 02:57:33;;;;;;;;;;;;;;;7.13;68.94;97257.34;5005551;28;19926;-66
2023/12/21 03:00:23;;;;;;;;;;;;;;;7.03;68.11;97238.66;5007641;28;19934;-68
2023/12/21 03:03:12;;;;;;;;;;;;;;;7.16;68.07;97234.34;5010949;28;19936;-66
2023/12/21 03:06:00;;;;;;;;;;;;;;;7.34;68.83;97230.66;5011996;28;20474;-66
2023/12/21 03:08:49;;;;;;;;;;;;;;;7.31;68.20;97225.88;4997637;28;20008;-67
2023/12/21 03:11:37;;;;;;;;;;;;;;;7.38;68.14;97231.63;5002271;28;20239;-66
2023/12/21 03:14:25;;;;;;;;;;;;;;;7.28;68.32;97223.78;5005124;28;19925;-67
2023/12/21 03:17:14;;;;;;;;;;;;;;;7.29;68.72;97212.66;5005640;28;19981;-67
2023/12/21 03:20:03;;;;;;;;;;;;;;;7.29;68.99;97209.94;5007722;28;19926;-67
2023/12/21 03:22:51;;;;;;;;;;;;;;;7.28;68.76;97208.34;5006357;28;19930;-66
2023/12/21 03:25:39;;;;;;;;;;;;;;;7.20;69.36;97203.69;5007989;28;20012;-66
2023/12/21 03:28:27;;;;;;;;;;;;;;;7.26;69.55;97207.88;5004479;28;19925;-68
2023/12/21 03:31:16;;;;;;;;;;;;;;;7.19;69.17;97196.72;5002685;28;19929;-68
2023/12/21 03:34:05;;;;;;;;;;;;;;;7.34;69.64;97188.22;5002352;28;20387;-67
2023/12/21 03:36:53;;;;;;;;;;;;;;;7.21;69.57;97202.59;4998562;28;20392;-68
2023/12/21 03:39:42;;;;;;;;;;;;;;;7.25;69.56;97202.78;4997806;28;20533;-67
2023/12/21 03:42:29;;;;;;;;;;;;;;;7.22;69.46;97203.38;5003986;28;19932;-68
2023/12/21 03:45:17;;;;;;;;;;;;;;;7.03;70.09;97190.88;5006646;28;20372;-67
2023/12/21 03:48:06;;;;;;;;;;;;;;;7.07;70.83;97199.94;5008616;28;19936;-68
2023/12/21 03:50:55;;;;;;;;;;;;;;;6.98;71.02;97182.09;5001471;28;19929;-67
2023/12/21 03:53:43;;;;;;;;;;;;;;;7.01;71.00;97181.47;5009293;28;19926;-68
2023/12/21 03:56:32;;;;;;;;;;;;;;;6.99;71.16;97162.06;5007014;28;20039;-68
2023/12/21 03:59:20;;;;;;;;;;;;;;;7.06;70.65;97165.94;5005954;28;19932;-68
2023/12/21 04:02:08;;;;;;;;;;;;;;;7.01;70.88;97165.25;5009425;28;19926;-66
2023/12/21 04:04:56;;;;;;;;;;;;;;;7.10;70.96;97171.53;5010732;28;19929;-66
2023/12/21 04:07:46;;;;;;;;;;;;;;;6.94;71.38;97148.69;5007969;28;19929;-67
2023/12/21 04:10:34;;;;;;;;;;;;;;;7.01;71.53;97140.94;5010090;28;19933;-66
2023/12/21 04:13:22;;;;;;;;;;;;;;;6.99;71.33;97137.75;5007797;28;19929;-66
2023/12/21 04:16:10;;;;;;;;;;;;;;;6.99;71.38;97132.38;5010638;28;20008;-67
2023/12/21 04:18:58;;;;;;;;;;;;;;;6.95;71.55;97139.47;5012966;28;20015;-66
2023/12/21 04:21:47;;;;;;;;;;;;;;;7.00;71.39;97145.56;5010965;28;19934;-66
2023/12/21 04:24:36;;;;;;;;;;;;;;;7.04;71.19;97141.13;5014404;28;19926;-67
2023/12/21 04:27:24;;;;;;;;;;;;;;;6.92;71.30;97130.06;5007612;28;20056;-66
2023/12/21 04:30:13;;;;;;;;;;;;;;;6.85;71.52;97120.81;5011394;28;20064;-67
2023/12/21 04:33:04;;;;;;;;;;;;;;;6.78;71.85;97119.34;5006685;28;19941;-64
2023/12/21 04:35:52;;;;;;;;;;;;;;;6.90;71.75;97104.50;5010467;28;19926;-66
2023/12/21 04:38:40;;;;;;;;;;;;;;;6.85;71.84;97097.31;5010810;28;19996;-67
2023/12/21 04:41:30;;;;;;;;;;;;;;;6.96;72.08;97101.34;5010022;28;19933;-68
2023/12/21 04:44:18;;;;;;;;;;;;;;;6.90;72.17;97094.47;5012982;28;20379;-66
2023/12/21 04:47:08;;;;;;;;;;;;;;;6.96;71.99;97100.56;5012352;28;20276;-66
2023/12/21 04:49:56;;;;;;;;;;;;;;;6.87;72.48;97087.03;5005926;28;20289;-67
2023/12/21 04:52:45;;;;;;;;;;;;;;;6.87;72.13;97083.50;5002119;28;19929;-66
2023/12/21 04:55:34;;;;;;;;;;;;;;;6.91;72.08;97070.97;5005637;28;19929;-67
2023/12/21 04:58:23;;;;;;;;;;;;;;;6.86;72.67;97071.09;5011731;28;20012;-66
2023/12/21 05:01:11;;;;;;;;;;;;;;;6.69;72.79;97079.88;5017081;28;20017;-66
2023/12/21 05:04:00;;;;;;;;;;;;;;;6.83;72.58;97092.22;5008631;28;19980;-66
2023/12/21 05:06:48;;;;;;;;;;;;;;;6.88;72.24;97093.22;5010381;28;20410;-67
2023/12/21 05:09:36;;;;;;;;;;;;;;;6.85;72.95;97096.50;5006990;28;19929;-66
2023/12/21 05:12:24;;;;;;;;;;;;;;;6.92;72.29;97077.97;5007272;28;20399;-67
2023/12/21 05:15:13;;;;;;;;;;;;;;;7.03;71.61;97080.13;5010569;28;21570;-67
2023/12/21 05:18:01;;;;;;;;;;;;;;;7.18;71.27;97076.22;5010994;28;19957;-66
2023/12/21 05:20:50;;;;;;;;;;;;;;;7.14;71.52;97071.75;5008324;28;19929;-66
2023/12/21 05:23:38;;;;;;;;;;;;;;;7.32;70.58;97060.75;5008007;28;20015;-67
2023/12/21 05:26:26;;;;;;;;;;;;;;;7.26;70.82;97063.88;5000365;28;19934;-67
2023/12/21 05:29:14;;;;;;;;;;;;;;;7.24;70.49;97058.78;5010040;28;19929;-66
2023/12/21 05:32:03;;;;;;;;;;;;;;;7.47;70.22;97062.25;5004740;28;19929;-66
2023/12/21 05:34:51;;;;;;;;;;;;;;;7.66;69.33;97059.28;5009576;28;20291;-66
2023/12/21 05:37:40;;;;;;;;;;;;;;;7.82;69.19;97055.03;5008889;28;19925;-67
2023/12/21 05:40:28;;;;;;;;;;;;;;;7.81;69.06;97049.94;5007459;28;19936;-66
2023/12/21 05:43:17;;;;;;;;;;;;;;;7.88;69.05;97017.81;5006485;28;20478;-66
2023/12/21 05:46:06;;;;;;;;;;;;;;;7.80;68.92;97019.41;5013494;28;19929;-66
2023/12/21 05:48:55;;;;;;;;;;;;;;;7.83;68.96;97021.50;5004287;28;19929;-67
2023/12/21 05:51:43;;;;;;;;;;;;;;;7.96;68.70;97030.56;5007876;28;19969;-69
2023/12/21 05:54:32;;;;;;;;;;;;;;;7.96;68.81;97025.16;5007642;28;19925;-68
2023/12/21 05:57:19;;;;;;;;;;;;;;;7.93;68.53;97003.34;5004470;28;20399;-68
2023/12/21 06:00:09;;;;;;;;;;;;;;;7.90;68.70;97006.72;4999465;28;19940;-67
2023/12/21 06:02:57;;;;;;;;;;;;;;;7.85;68.99;97004.94;5001217;28;19929;-68
2023/12/21 06:05:47;;;;;;;;;;;;;;;7.86;69.14;97018.16;5011700;28;19968;-67
2023/12/21 06:08:35;;;;;;;;;;;;;;;7.94;68.49;97010.38;5008859;28;19936;-69
2023/12/21 06:11:23;;;;;;;;;;;;;;;7.77;68.86;97011.91;5005525;28;20735;-67
2023/12/21 06:14:12;;;;;;;;;;;;;;;7.85;69.07;97003.03;5014173;28;20033;-66
2023/12/21 06:17:00;;;;;;;;;;;;;;;7.86;68.61;96991.09;5011066;28;19925;-66
2023/12/21 06:19:49;;;;;;;;;;;;;;;7.98;68.52;96984.28;5007466;28;20100;-68
2023/12/21 06:22:39;;;;;;;;;;;;;;;7.97;68.52;96969.16;5002765;28;19930;-68
2023/12/21 06:25:27;;;;;;;;;;;;;;;7.96;68.64;96967.56;5006778;28;20024;-66
2023/12/21 06:28:15;;;;;;;;;;;;;;;8.22;68.14;96968.38;5004400;28;19926;-65
2023/12/21 06:31:04;;;;;;;;;;;;;;;8.32;67.84;96951.03;4998642;28;20315;-64
2023/12/21 06:33:52;;;;;;;;;;;;;;;8.45;67.36;96943.88;5002048;28;20465;-64
2023/12/21 06:36:40;;;;;;;;;;;;;;;8.55;66.72;96943.53;5005042;28;19925;-64
2023/12/21 06:39:32;;;;;;;;;;;;;;;8.54;66.61;96939.25;5005959;28;20419;-65
2023/12/21 06:42:20;;;;;;;;;;;;;;;8.54;66.57;96933.84;5011458;28;19976;-64
2023/12/21 06:45:11;;;;;;;;;;;;;;;8.61;65.96;96931.41;5008412;28;20410;-64
2023/12/21 06:48:02;;;;;;;;;;;;;;;8.61;66.17;96931.41;5010892;28;19925;-64
2023/12/21 06:50:50;;;;;;;;;;;;;;;8.51;66.29;96926.34;5003997;28;19933;-64
2023/12/21 06:53:39;;;;;;;;;;;;;;;8.51;66.20;96921.72;4998911;28;19992;-64
2023/12/21 06:56:28;;;;;;;;;;;;;;;8.49;66.80;96923.97;4996336;28;19936;-63
2023/12/21 06:59:24;;;;;;;;;;;;;;;8.47;66.63;96923.50;5000157;28;20766;-64
2023/12/21 07:02:12;;;;;;;;;;;;;;;8.37;66.97;96911.09;5006230;28;19985;-64
2023/12/21 07:05:02;;;;;;;;;;;;;;;8.32;67.14;96908.53;5000035;28;19930;-64
2023/12/21 07:07:50;;;;;;;;;;;;;;;8.30;67.24;96899.91;5002746;28;20379;-64
2023/12/21 07:10:38;;;;;;;;;;;;;;;8.24;67.26;96898.50;4992991;28;19986;-64
2023/12/21 07:13:27;;;;;;;;;;;;;;;8.30;67.34;96905.31;4998877;28;19971;-63
2023/12/21 07:16:15;;;;;;;;;;;;;;;8.40;67.19;96910.44;4993048;28;19941;-63
2023/12/21 07:19:06;;;;;;;;;;;;;;;8.37;67.02;96900.28;4999111;28;20008;-64
2023/12/21 07:21:54;;;;;;;;;;;;;;;8.40;67.12;96910.44;5004065;28;20024;-64
2023/12/21 07:24:42;;;;;;;;;;;;;;;8.30;67.13;96905.31;5003675;28;20026;-64
2023/12/21 07:27:30;;;;;;;;;;;;;;;8.33;67.10;96880.34;5002474;28;19925;-62
2023/12/21 07:30:21;;;;;;;;;;;;;;;8.31;67.45;96884.47;5004213;28;19937;-63
2023/12/21 07:33:09;;;;;;;;;;;;;;;8.28;67.51;96880.50;5003862;28;20007;-65
2023/12/21 07:35:58;;;;;;;;;;;;;;;8.30;67.49;96889.09;5003229;28;19980;-65
2023/12/21 07:38:46;;;;;;;;;;;;;;;8.32;68.13;96892.28;5005568;28;19932;-62
2023/12/21 07:41:34;;;;;;;;;;;;;;;8.38;67.98;96890.25;5007831;28;19975;-63
2023/12/21 07:44:22;;;;;;;;;;;;;;;8.32;68.64;96884.19;5007568;28;19926;-63
2023/12/21 07:47:11;;;;;;;;;;;;;;;8.30;69.19;96867.44;5002698;28;19937;-62
2023/12/21 07:50:00;;;;;;;;;;;;;;;8.23;69.32;96872.56;5002080;28;19991;-63
2023/12/21 07:52:48;;;;;;;;;;;;;;;8.24;69.56;96874.16;5002768;28;19983;-62
2023/12/21 07:55:36;;;;;;;;;;;;;;;8.15;69.53;96865.28;5004597;28;19925;-62
2023/12/21 07:58:25;;;;;;;;;;;;;;;8.09;70.11;96882.75;5007088;28;20408;-63
2023/12/21 08:01:13;;;;;;;;;;;;;;;8.00;70.76;96869.25;5006615;28;19925;-63
2023/12/21 08:04:02;;;;;;;;;;;;;;;8.09;70.72;96866.53;5002548;28;19929;-63
2023/12/21 08:06:53;;;;;;;;;;;;;;;8.13;70.58;96870.19;5007803;28;19944;-62
2023/12/21 08:09:42;;;;;;;;;;;;;;;8.11;70.72;96875.13;5004989;28;20581;-64
2023/12/21 08:12:30;;;;;;;;;;;;;;;8.13;71.17;96867.47;5004923;28;20406;-63
2023/12/21 08:15:18;;;;;;;;;;;;;;;8.18;71.06;96866.53;4998752;28;19940;-63
2023/12/21 08:18:06;;;;;;;;;;;;;;;8.23;70.99;96856.31;5006242;28;20654;-63
2023/12/21 08:20:56;;;;;;;;;;;;;;;8.36;70.50;96859.97;5000377;28;19929;-63
2023/12/21 08:23:47;;;;;;;;;;;;;;;8.33;70.32;96856.00;5007117;28;20023;-62
2023/12/21 08:26:35;;;;;;;;;;;;;;;8.32;70.38;96832.75;5004058;28;20419;-64
2023/12/21 08:29:23;;;;;;;;;;;;;;;8.34;70.36;96830.50;5003565;28;19934;-63
2023/12/21 08:32:11;;;;;;;;;;;;;;;8.42;69.91;96822.75;5000546;28;20290;-63
2023/12/21 08:34:59;;;;;;;;;;;;;;;8.47;69.70;96823.34;5005987;28;20445;-63
2023/12/21 08:37:48;;;;;;;;;;;;;;;8.52;69.92;96816.94;5000533;28;19929;-63
2023/12/21 08:40:37;;;;;;;;;;;;;;;8.53;69.60;96810.44;4997718;28;19948;-62
2023/12/21 08:43:25;;;;;;;;;;;;;;;8.52;69.76;96809.66;5006285;28;19941;-62
2023/12/21 08:46:13;;;;;;;;;;;;;;;8.47;69.50;96809.00;4999132;28;19930;-62
2023/12/21 08:49:01;;;;;;;;;;;;;;;8.44;69.88;96791.50;5003416;28;19936;-64
2023/12/21 08:51:52;;;;;;;;;;;;;;;8.29;70.41;96786.59;5006464;28;19940;-62
2023/12/21 08:54:42;;;;;;;;;;;;;;;8.19;71.12;96776.91;5001389;28;20034;-62
2023/12/21 08:57:36;;;;;;;;;;;;;;;8.34;70.82;96764.78;5010847;28;19926;-62
2023/12/21 09:00:24;;;;;;;;;;;;;;;8.35;70.33;96766.34;5004844;28;19975;-62
2023/12/21 09:03:13;;;;;;;;;;;;;;;8.24;70.83;96760.50;5008855;28;19936;-64
2023/12/21 09:06:00;;;;;;;;;;;;;;;8.22;71.31;96751.94;5005894;28;19929;-64
2023/12/21 09:08:51;;;;;;;;;;;;;;;8.32;70.79;96735.34;5010739;28;19933;-62
2023/12/21 09:11:43;;;;;;;;;;;;;;;8.40;70.50;96731.81;5008542;28;19925;-62
2023/12/21 09:14:31;;;;;;;;;;;;;;;8.51;70.15;96702.47;5011690;28;19925;-62
2023/12/21 09:17:19;;;;;;;;;;;;;;;8.61;70.01;96709.41;5003261;28;20310;-62
2023/12/21 09:20:09;;;;;;;;;;;;;;;8.54;70.15;96706.44;5006659;28;20020;-62
2023/12/21 09:22:57;;;;;;;;;;;;;;;8.54;70.46;96706.44;5009356;28;19948;-62
2023/12/21 09:25:45;;;;;;;;;;;;;;;8.55;70.53;96699.91;5008137;28;19929;-62
2023/12/21 09:28:37;;;;;;;;;;;;;;;8.62;70.43;96684.72;5008934;28;19937;-63
2023/12/21 09:31:28;;;;;;;;;;;;;;;8.65;70.36;96684.06;5013993;28;19998;-63
2023/12/21 09:34:17;;;;;;;;;;;;;;;8.68;70.25;96654.75;5008119;28;20639;-64
2023/12/21 09:37:06;;;;;;;;;;;;;;;8.70;70.06;96655.22;5009508;28;20390;-64
2023/12/21 09:39:56;;;;;;;;;;;;;;;8.62;70.47;96643.31;5010321;28;19936;-64
2023/12/21 09:42:44;;;;;;;;;;;;;;;8.58;70.43;96637.00;5010918;28;19926;-62
2023/12/21 09:45:36;;;;;;;;;;;;;;;8.52;70.39;96657.25;5013704;28;19929;-64
2023/12/21 09:48:25;;;;;;;;;;;;;;;8.55;70.68;96638.44;5005431;28;19934;-62
2023/12/21 09:51:14;;;;;;;;;;;;;;;8.45;70.99;96638.81;5007718;28;19925;-62
2023/12/21 09:54:04;;;;;;;;;;;;;;;8.46;70.89;96615.25;5003013;28;19930;-62
2023/12/21 09:56:52;;;;;;;;;;;;;;;8.49;71.17;96604.56;5006154;28;20024;-63
2023/12/21 09:59:40;;;;;;;;;;;;;;;8.62;70.73;96608.13;5005830;28;19940;-63
2023/12/21 10:02:31;;;;;;;;;;;;;;;8.64;70.67;96606.69;5006180;28;20309;-62
2023/12/21 10:05:20;;;;;;;;;;;;;;;8.66;69.61;96582.78;5009601;28;19929;-62
2023/12/21 10:08:08;;;;;;;;;;;;;;;8.58;70.15;96577.44;5005318;28;20084;-62
2023/12/21 10:10:56;;;;;;;;;;;;;;;8.59;70.18;96566.28;5003289;28;20504;-62
2023/12/21 10:13:46;;;;;;;;;;;;;;;8.55;70.53;96553.72;5004280;28;20328;-62
2023/12/21 10:16:35;;;;;;;;;;;;;;;8.66;70.49;96560.31;5001983;28;19937;-62
2023/12/21 10:19:24;;;;;;;;;;;;;;;8.63;70.32;96526.59;5007188;28;20487;-62
2023/12/21 10:22:13;;;;;;;;;;;;;;;8.61;70.46;96528.03;5007116;28;19937;-62
2023/12/21 10:25:01;;;;;;;;;;;;;;;8.59;70.23;96524.88;5005452;28;19930;-62
2023/12/21 10:27:54;;;;;;;;;;;;;;;8.70;70.36;96511.72;5001883;28;19942;-62
2023/12/21 10:30:42;;;;;;;;;;;;;;;8.82;69.64;96488.19;5005001;28;20263;-63
2023/12/21 10:33:30;;;;;;;;;;;;;;;8.89;69.65;96482.22;5004635;28;19929;-62
2023/12/21 10:36:21;;;;;;;;;;;;;;;8.90;69.55;96487.31;5003070;28;19965;-62
2023/12/21 10:39:09;;;;;;;;;;;;;;;8.90;69.55;96454.03;4998796;28;19938;-62
2023/12/21 10:41:57;;;;;;;;;;;;;;;8.89;69.63;96438.88;5007525;28;19984;-62
2023/12/21 10:44:45;;;;;;;;;;;;;;;8.88;69.66;96435.38;5003781;28;19955;-62
2023/12/21 10:47:33;;;;;;;;;;;;;;;8.86;69.87;96426.81;5005142;28;19983;-62
2023/12/21 10:50:21;;;;;;;;;;;;;;;8.86;69.63;96423.31;5001990;28;19929;-62
2023/12/21 10:53:11;;;;;;;;;;;;;;;8.81;69.73;96416.19;5003917;28;19961;-62
2023/12/21 10:55:59;;;;;;;;;;;;;;;8.89;69.90;96414.50;5005060;28;19925;-62
2023/12/21 10:58:47;;;;;;;;;;;;;;;8.77;70.44;96403.66;5006064;28;19929;-62
2023/12/21 11:01:35;;;;;;;;;;;;;;;8.74;70.45;96388.88;5002787;28;19925;-63
2023/12/21 11:04:24;;;;;;;;;;;;;;;8.76;70.75;96386.63;5001594;28;19929;-63
2023/12/21 11:07:12;;;;;;;;;;;;;;;8.78;70.61;96381.66;5003221;28;20009;-62
2023/12/21 11:10:02;;;;;;;;;;;;;;;8.83;70.63;96369.81;5002228;28;20310;-62
2023/12/21 11:12:51;;;;;;;;;;;;;;;8.93;70.33;96348.50;5005721;28;19929;-62
2023/12/21 11:15:39;;;;;;;;;;;;;;;8.91;70.60;96352.69;5002801;28;19929;-62
2023/12/21 11:18:28;;;;;;;;;;;;;;;8.87;70.69;96335.53;5002170;28;19929;-63
2023/12/21 11:21:17;;;;;;;;;;;;;;;8.83;71.08;96319.16;5009653;28;19926;-62
2023/12/21 11:24:06;;;;;;;;;;;;;;;8.84;71.03;96307.22;5005214;28;19937;-63
2023/12/21 11:26:56;;;;;;;;;;;;;;;8.95;70.70;96295.91;5004185;28;20406;-62
2023/12/21 11:29:44;;;;;;;;;;;;;;;8.87;70.48;96290.28;5006899;28;19926;-62
2023/12/21 11:32:32;;;;;;;;;;;;;;;8.90;70.58;96284.19;5000522;28;19936;-62
2023/12/21 11:35:20;;;;;;;;;;;;;;;8.95;70.51;96280.47;5006544;28;19933;-63
2023/12/21 11:38:08;;;;;;;;;;;;;;;8.98;70.36;96278.97;5003033;28;19926;-63
2023/12/21 11:40:57;;;;;;;;;;;;;;;9.06;70.24;96264.53;5006783;28;20016;-62
2023/12/21 11:43:56;;;;;;;;;;;;;;;9.07;70.07;96260.69;5009394;28;20295;-63
2023/12/21 11:46:44;;;;;;;;;;;;;;;9.16;69.92;96259.44;5005626;28;20027;-62
2023/12/21 11:49:32;;;;;;;;;;;;;;;9.23;69.36;96244.50;4999780;28;19937;-63
2023/12/21 11:52:24;;;;;;;;;;;;;;;9.32;69.01;96251.38;4999785;28;19929;-63
2023/12/21 11:55:12;;;;;;;;;;;;;;;9.34;68.64;96232.84;5008090;28;19929;-63
2023/12/21 11:58:06;;;;;;;;;;;;;;;9.38;68.95;96241.88;5007505;28;20422;-63
2023/12/21 12:00:56;;;;;;;;;;;;;;;9.36;68.62;96244.13;5007274;28;19984;-62
2023/12/21 12:03:45;;;;;;;;;;;;;;;9.44;68.63;96243.22;5003292;28;19977;-63
2023/12/21 12:06:33;;;;;;;;;;;;;;;9.51;68.20;96220.91;4995813;28;19933;-63
2023/12/21 12:09:21;;;;;;;;;;;;;;;9.44;68.32;96223.44;4999252;28;20020;-63
2023/12/21 12:12:09;;;;;;;;;;;;;;;9.40;68.68;96222.56;5006935;28;20015;-63
2023/12/21 12:14:57;;;;;;;;;;;;;;;9.39;69.11;96210.13;5006866;28;20291;-63
2023/12/21 12:17:46;;;;;;;;;;;;;;;9.42;69.61;96199.38;5003014;28;20034;-63
2023/12/21 12:20:39;;;;;;;;;;;;;;;9.30;70.30;96201.34;5002965;28;20636;-63
2023/12/21 12:23:27;;;;;;;;;;;;;;;9.22;71.25;96203.09;5004887;28;19930;-62
2023/12/21 12:26:15;;;;;;;;;;;;;;;9.13;72.03;96205.13;5011106;28;20011;-63
2023/12/21 12:29:03;;;;;;;;;;;;;;;9.16;72.04;96193.59;5012081;28;20379;-62
2023/12/21 12:31:51;;;;;;;;;;;;;;;9.25;72.42;96202.38;5005002;28;20119;-63
2023/12/21 12:34:40;;;;;;;;;;;;;;;9.29;72.31;96192.44;5012782;28;19926;-63
2023/12/21 12:37:28;;;;;;;;;;;;;;;9.22;72.79;96176.00;5011154;28;19925;-63
2023/12/21 12:40:16;;;;;;;;;;;;;;;9.18;73.31;96170.47;5008753;28;20307;-62
2023/12/21 12:43:05;;;;;;;;;;;;;;;9.08;73.86;96175.56;5012043;28;19925;-62
2023/12/21 12:45:53;;;;;;;;;;;;;;;8.94;74.52;96159.69;5011673;28;19929;-62
2023/12/21 12:48:41;;;;;;;;;;;;;;;8.95;74.87;96168.59;5003557;28;19996;-62
2023/12/21 12:51:32;;;;;;;;;;;;;;;9.00;75.12;96160.25;5010099;28;20016;-62
2023/12/21 12:54:21;;;;;;;;;;;;;;;9.03;75.08;96156.84;5003395;28;19936;-62
2023/12/21 12:57:13;;;;;;;;;;;;;;;9.10;75.10;96144.28;5002362;28;19941;-62
2023/12/21 13:00:03;;;;;;;;;;;;;;;9.21;74.47;96139.16;5006125;28;20284;-62
2023/12/21 13:02:51;;;;;;;;;;;;;;;9.32;74.16;96124.00;5010821;28;19995;-62
2023/12/21 13:05:42;;;;;;;;;;;;;;;9.36;74.01;96127.59;5007913;28;19980;-61
2023/12/21 13:08:33;;;;;;;;;;;;;;;9.31;74.09;96108.88;5005489;28;19969;-63
2023/12/21 13:11:22;;;;;;;;;;;;;;;9.36;73.87;96122.16;5000987;28;20054;-62
2023/12/21 13:14:12;;;;;;;;;;;;;;;9.34;74.21;96102.75;5004866;28;19956;-64
2023/12/21 13:17:00;;;;;;;;;;;;;;;9.40;73.95;96101.38;5010533;28;19929;-62
2023/12/21 13:19:48;;;;;;;;;;;;;;;9.36;73.71;96100.47;5005475;28;19955;-62
2023/12/21 13:22:37;;;;;;;;;;;;;;;9.37;73.60;96099.34;5006601;28;20379;-62
2023/12/21 13:25:26;;;;;;;;;;;;;;;9.28;73.79;96092.53;5006404;28;20391;-61
2023/12/21 13:28:14;;;;;;;;;;;;;;;9.35;73.61;96096.19;5009705;28;19926;-64
2023/12/21 13:31:05;;;;;;;;;;;;;;;9.35;73.29;96071.03;5006077;28;19967;-62
2023/12/21 13:33:53;;;;;;;;;;;;;;;9.32;73.32;96058.97;5003005;28;20209;-61
2023/12/21 13:36:41;;;;;;;;;;;;;;;9.12;73.65;96062.69;5002313;28;20380;-61
2023/12/21 13:39:30;;;;;;;;;;;;;;;9.16;73.48;96041.88;5002204;28;19925;-62
2023/12/21 13:42:19;;;;;;;;;;;;;;;9.17;73.13;96062.44;5003174;28;19926;-61
2023/12/21 13:45:09;;;;;;;;;;;;;;;9.18;73.50;96039.63;4999030;28;19932;-63
2023/12/21 13:47:57;;;;;;;;;;;;;;;9.23;73.02;96038.59;4997868;28;19930;-64
2023/12/21 13:50:45;;;;;;;;;;;;;;;9.22;72.96;96045.94;5003225;28;19940;-63
2023/12/21 13:53:34;;;;;;;;;;;;;;;9.24;73.35;96023.91;5006214;28;20008;-63
2023/12/21 13:56:22;;;;;;;;;;;;;;;9.19;73.20;96041.19;5006447;28;19949;-63
2023/12/21 13:59:12;;;;;;;;;;;;;;;9.21;72.73;96038.91;5006926;28;19933;-63
2023/12/21 14:02:00;;;;;;;;;;;;;;;9.25;73.07;96022.75;5004585;28;19996;-62
2023/12/21 14:04:48;;;;;;;;;;;;;;;9.28;72.94;96044.53;5005100;28;19984;-63
2023/12/21 14:07:37;;;;;;;;;;;;;;;9.37;72.89;95998.28;5003392;28;19937;-63
2023/12/21 14:10:25;;;;;;;;;;;;;;;9.38;72.56;96016.94;5003105;28;20020;-63
2023/12/21 14:13:14;;;;;;;;;;;;;;;9.39;72.47;96013.06;5002293;28;19929;-63
2023/12/21 14:16:03;;;;;;;;;;;;;;;9.45;72.58;95987.28;4998629;28;20375;-63
2023/12/21 14:18:51;;;;;;;;;;;;;;;9.53;71.97;96011.84;5008261;28;19933;-63
2023/12/21 14:21:39;;;;;;;;;;;;;;;9.64;71.91;95989.28;4999378;28;20266;-64
2023/12/21 14:24:28;;;;;;;;;;;;;;;9.67;71.63;95990.50;5007454;28;19937;-63
2023/12/21 14:27:19;;;;;;;;;;;;;;;9.71;71.32;95969.69;4993924;28;19995;-63
2023/12/21 14:30:08;;;;;;;;;;;;;;;9.75;71.37;95959.72;5006341;28;20648;-63
2023/12/21 14:32:58;;;;;;;;;;;;;;;9.80;71.25;95983.84;5011039;28;20228;-63
2023/12/21 14:35:46;;;;;;;;;;;;;;;9.85;70.98;95942.84;5003696;28;20315;-63
2023/12/21 14:38:36;;;;;;;;;;;;;;;9.90;70.48;95956.13;5003944;28;19937;-63
2023/12/21 14:41:24;;;;;;;;;;;;;;;9.93;70.31;95969.00;5005418;28;19929;-63
2023/12/21 14:44:14;;;;;;;;;;;;;;;9.93;70.19;95949.25;4998446;28;19926;-63
2023/12/21 14:47:02;;;;;;;;;;;;;;;9.99;70.32;95945.09;4997840;28;20016;-61
2023/12/21 14:49:52;;;;;;;;;;;;;;;9.97;70.20;95966.38;5000992;28;19959;-61